world map with CCH marked

CCH - Airport

This information may not be accurate or current and is not valid for navigation or flight planning. No warranty of fitness for any purpose is made or implied.

flag of Aysén del General Carlos Ibáñez del Campoflag of Chile

Donate via PayPal

Additional information is available on the NEW Great Circle Mapper

Location
City:  Chile Chico, Aysén del General Carlos Ibáñez del Campo, Chile
Name:Chile Chico Airport
ICAO / IATA:SCCC / CCH

Details
Type:Airport (Aerodrome, Airfield)
Use:Public/Civil
Latitude:46°34'58"S (-46.582777)
Longitude:71°41'12"W (-71.686666)
Elevation:1070 ft (326 m)
Runways:1
Longest:3937 × 75 ft (1200 × 23 m)

Time
Timezone:UTC+30:08 (DST+33:08)
Local Time:

Weather
METAR:SCCC  041400Z 05006KT CAVOK 25/04 Q1015

Related Locations
Nearby:
Farthest:MXW: 12323 mi / 19832 km
Mandalgovi (Mandalgobi) [Mandalgovi Airport], 059, MN

Find:

   beyond  
but within

Other Information
Maps:
Sources:

  


 


Great Circle Mapper   Great Circle Mapper
Great Circle Mapper FAQ   Great Circle Mapper FAQ
  Karl's Home Page
KLS²   KLS² Home
   GC on Facebook
Airlines of the World   Airlines of the World
Donate via PayPal


Copyright © 2004-2020, Karl L. Swartz. All rights reserved.
All trademarks mentioned herein belong to their respective owners.

Please see credits for attribution and copyright information.

Karl Swartz <karl@kls2.com>
  Powered by FreeBSD
Valid HTML 4.01!
Labeled with ICRA
hCard Microformat
Geo Microformat